createdAt,value
2023-01-18T00:02:03.691Z,0.96
2023-01-18T00:04:30.305Z,1.04
2023-01-18T00:06:57.316Z,1.06
2023-01-18T00:09:23.821Z,0.88
2023-01-18T00:11:50.330Z,0.80
2023-01-18T00:14:17.069Z,0.80
2023-01-18T00:16:43.582Z,0.77
2023-01-18T00:19:13.098Z,0.74
2023-01-18T00:21:40.570Z,0.73
2023-01-18T00:24:10.991Z,0.73
2023-01-18T00:26:37.987Z,0.69
2023-01-18T00:29:04.924Z,0.68
2023-01-18T00:31:31.739Z,0.72
2023-01-18T00:33:58.576Z,0.68
2023-01-18T00:36:25.078Z,0.66
2023-01-18T00:38:52.528Z,0.64
2023-01-18T00:41:20.855Z,0.63
2023-01-18T00:43:47.311Z,0.71
2023-01-18T00:46:20.044Z,0.79
2023-01-18T00:48:47.112Z,0.78
2023-01-18T00:51:16.271Z,0.80
2023-01-18T00:53:46.137Z,0.83
2023-01-18T00:56:15.566Z,0.84
2023-01-18T00:58:42.475Z,0.78
2023-01-18T01:01:10.044Z,0.81
2023-01-18T01:03:56.148Z,0.74
2023-01-18T01:06:44.539Z,0.67
2023-01-18T01:09:22.018Z,0.67
2023-01-18T01:12:07.879Z,0.67
2023-01-18T01:14:55.909Z,0.69
2023-01-18T01:17:41.392Z,0.68
2023-01-18T01:20:27.441Z,0.68
2023-01-18T01:23:12.306Z,0.72
2023-01-18T01:25:58.142Z,0.73
2023-01-18T01:28:24.933Z,0.79
2023-01-18T01:30:51.583Z,0.78
2023-01-18T01:33:18.677Z,0.81
2023-01-18T01:35:45.515Z,0.86
2023-01-18T01:38:12.037Z,0.89
2023-01-18T01:40:38.537Z,0.92
2023-01-18T01:43:09.795Z,0.98
2023-01-18T01:45:36.461Z,1.03
2023-01-18T01:48:03.325Z,0.96
2023-01-18T01:50:35.890Z,1.04
2023-01-18T01:53:02.906Z,1.00
2023-01-18T01:55:35.150Z,0.95
2023-01-18T01:58:03.790Z,0.90
2023-01-18T02:00:30.885Z,0.87
2023-01-18T02:03:02.182Z,0.90
2023-01-18T02:05:30.017Z,0.82
2023-01-18T02:07:59.883Z,0.94
2023-01-18T02:10:26.779Z,0.83
2023-01-18T02:12:54.879Z,0.76
2023-01-18T02:15:22.979Z,0.77
2023-01-18T02:18:06.188Z,0.76
2023-01-18T02:21:03.232Z,0.74
2023-01-18T02:23:35.233Z,0.75
2023-01-18T02:26:25.079Z,0.66
2023-01-18T02:29:01.464Z,0.71
2023-01-18T02:31:34.512Z,0.66
2023-01-18T02:34:16.535Z,0.67
2023-01-18T02:37:01.267Z,0.69
2023-01-18T02:39:38.423Z,0.70
2023-01-18T02:42:40.302Z,0.70
2023-01-18T02:45:36.044Z,0.72
2023-01-18T02:48:03.304Z,0.75
2023-01-18T02:50:29.854Z,0.79
2023-01-18T02:52:56.723Z,0.75
2023-01-18T02:55:47.917Z,0.82
2023-01-18T02:58:34.253Z,0.80
2023-01-18T03:01:15.431Z,0.81
2023-01-18T03:03:44.376Z,0.87
2023-01-18T03:06:10.879Z,0.81
2023-01-18T03:08:46.553Z,0.81
2023-01-18T03:11:19.183Z,0.82
2023-01-18T03:13:57.880Z,0.83
2023-01-18T03:16:26.205Z,0.80
2023-01-18T03:19:25.677Z,0.78
2023-01-18T03:21:53.229Z,0.77
2023-01-18T03:24:22.887Z,0.78
2023-01-18T03:26:53.190Z,0.79
2023-01-18T03:29:39.639Z,0.76
2023-01-18T03:32:30.364Z,0.86
2023-01-18T03:35:10.877Z,0.79
2023-01-18T03:37:41.016Z,0.67
2023-01-18T03:40:13.570Z,0.70
2023-01-18T03:43:05.579Z,0.70
2023-01-18T03:45:38.909Z,0.65
2023-01-18T03:48:08.149Z,0.60
2023-01-18T03:50:49.942Z,0.58
2023-01-18T03:53:42.157Z,0.62
2023-01-18T03:56:37.805Z,0.63
2023-01-18T03:59:05.508Z,0.62
2023-01-18T04:01:32.158Z,0.63
2023-01-18T04:03:58.706Z,0.58
2023-01-18T04:06:25.817Z,0.57
2023-01-18T04:08:53.157Z,0.57
2023-01-18T04:11:20.234Z,0.65
2023-01-18T04:13:46.746Z,0.61
2023-01-18T04:16:13.453Z,0.62
2023-01-18T04:18:40.043Z,0.60
2023-01-18T04:21:06.497Z,0.63
2023-01-18T04:23:32.968Z,0.60
2023-01-18T04:25:59.510Z,0.64
2023-01-18T04:28:26.101Z,0.64
2023-01-18T04:30:54.080Z,0.65
2023-01-18T04:33:21.669Z,0.66
2023-01-18T04:35:48.584Z,0.63
2023-01-18T04:38:15.833Z,0.62
2023-01-18T04:40:42.751Z,0.63
2023-01-18T04:43:09.371Z,0.66
2023-01-18T04:45:35.876Z,0.70
2023-01-18T04:48:02.311Z,0.71
2023-01-18T04:50:28.875Z,0.72
2023-01-18T04:52:55.726Z,0.75
2023-01-18T04:55:22.827Z,0.71
2023-01-18T04:57:56.778Z,0.72
2023-01-18T05:00:24.161Z,0.79
2023-01-18T05:02:50.995Z,0.73
2023-01-18T05:05:17.814Z,0.79
2023-01-18T05:07:44.312Z,0.88
2023-01-18T05:10:11.170Z,0.84
2023-01-18T05:12:37.930Z,0.84
2023-01-18T05:15:05.859Z,0.84
2023-01-18T05:17:34.612Z,0.90
2023-01-18T05:20:02.070Z,0.92
2023-01-18T05:22:29.154Z,0.90
2023-01-18T05:24:55.777Z,0.91
2023-01-18T05:27:22.394Z,0.95
2023-01-18T05:29:48.890Z,0.95
2023-01-18T05:32:15.435Z,0.90
2023-01-18T05:34:42.332Z,0.97
2023-01-18T05:37:08.772Z,0.92
2023-01-18T05:39:35.216Z,0.90
2023-01-18T05:42:01.729Z,0.89
2023-01-18T05:44:28.255Z,0.85
2023-01-18T05:46:54.733Z,0.82
2023-01-18T05:49:21.207Z,0.81
2023-01-18T05:51:47.734Z,0.81
2023-01-18T05:54:14.282Z,0.80
2023-01-18T05:56:42.248Z,0.78
2023-01-18T05:59:09.063Z,0.78
2023-01-18T06:01:35.602Z,0.76
2023-01-18T06:04:02.149Z,0.73
2023-01-18T06:06:28.794Z,0.69
2023-01-18T06:08:55.354Z,0.68
2023-01-18T06:11:22.015Z,0.69
2023-01-18T06:13:48.624Z,0.72
2023-01-18T06:16:15.262Z,0.74
2023-01-18T06:18:42.024Z,0.72
2023-01-18T06:21:10.769Z,0.71
2023-01-18T06:23:37.844Z,0.69
2023-01-18T06:26:04.570Z,0.67
2023-01-18T06:28:31.141Z,0.67
2023-01-18T06:30:58.091Z,0.66
2023-01-18T06:33:25.207Z,0.66
2023-01-18T06:35:52.242Z,0.66
2023-01-18T06:38:19.984Z,0.66
2023-01-18T06:40:46.500Z,0.64
2023-01-18T06:43:14.296Z,0.65
2023-01-18T06:45:41.372Z,0.66
2023-01-18T06:48:08.256Z,0.66
2023-01-18T06:50:34.700Z,0.70
2023-01-18T06:53:01.499Z,0.74
2023-01-18T06:55:28.155Z,0.73
2023-01-18T06:57:56.217Z,0.75
2023-01-18T07:00:23.588Z,0.78
2023-01-18T07:02:52.811Z,0.79
2023-01-18T07:05:22.931Z,0.80
2023-01-18T07:07:49.468Z,0.77
2023-01-18T07:10:16.910Z,0.77
2023-01-18T07:12:47.419Z,0.80
2023-01-18T07:15:21.607Z,0.78
2023-01-18T07:17:50.322Z,0.79
2023-01-18T07:20:17.106Z,0.77
2023-01-18T07:22:43.610Z,0.80
2023-01-18T07:25:13.262Z,0.83
2023-01-18T07:27:43.545Z,0.84
2023-01-18T07:30:13.520Z,0.88
2023-01-18T07:32:40.614Z,0.88
2023-01-18T07:35:07.402Z,0.89
2023-01-18T07:37:34.151Z,0.91
2023-01-18T07:40:00.709Z,0.95
2023-01-18T07:42:27.224Z,0.91
2023-01-18T07:44:53.960Z,0.94
2023-01-18T07:47:21.081Z,0.90
2023-01-18T07:49:47.547Z,0.84
2023-01-18T07:52:14.033Z,0.86
2023-01-18T07:54:40.543Z,0.88
2023-01-18T07:57:07.032Z,0.85
2023-01-18T07:59:33.813Z,0.83
2023-01-18T08:02:00.444Z,0.84
2023-01-18T08:04:27.018Z,0.81
2023-01-18T08:06:53.693Z,0.80
2023-01-18T08:09:22.867Z,0.80
2023-01-18T08:11:49.385Z,0.81
2023-01-18T08:14:16.408Z,0.79
2023-01-18T08:16:43.291Z,0.79
2023-01-18T08:19:09.940Z,0.78
2023-01-18T08:21:36.567Z,0.83
2023-01-18T08:24:03.625Z,0.82
2023-01-18T08:26:30.285Z,0.81
2023-01-18T08:28:57.557Z,0.81
2023-01-18T08:31:24.176Z,0.81
2023-01-18T08:33:51.017Z,0.80
2023-01-18T08:36:22.789Z,0.76
2023-01-18T08:38:51.071Z,0.79
2023-01-18T08:41:19.122Z,0.77
2023-01-18T08:43:50.563Z,0.81
2023-01-18T08:46:17.493Z,0.81
2023-01-18T08:48:44.191Z,0.80
2023-01-18T08:51:10.895Z,0.83
2023-01-18T08:53:37.518Z,0.84
2023-01-18T08:56:06.326Z,0.82
2023-01-18T08:58:33.182Z,0.86
2023-01-18T09:00:59.803Z,0.89
2023-01-18T09:03:26.458Z,0.88
2023-01-18T09:05:52.964Z,0.88
2023-01-18T09:08:22.786Z,0.87
2023-01-18T09:10:49.586Z,0.87
2023-01-18T09:13:16.056Z,0.90
2023-01-18T09:15:42.873Z,0.90
2023-01-18T09:18:09.693Z,0.88
2023-01-18T09:20:36.408Z,0.89
2023-01-18T09:23:10.173Z,0.91
2023-01-18T09:25:37.196Z,0.98
2023-01-18T09:28:04.825Z,0.96
2023-01-18T09:30:31.448Z,0.98
2023-01-18T09:32:58.823Z,0.99
2023-01-18T09:35:25.587Z,0.99
2023-01-18T09:37:52.332Z,1.00
2023-01-18T09:40:20.757Z,1.04
2023-01-18T09:42:49.503Z,1.05
2023-01-18T09:45:31.952Z,1.05
2023-01-18T09:48:05.242Z,1.09
2023-01-18T09:50:42.810Z,1.08
2023-01-18T09:53:57.653Z,1.04
2023-01-18T09:56:27.752Z,1.07
2023-01-18T09:59:15.584Z,1.05
2023-01-18T10:01:42.281Z,1.02
2023-01-18T10:04:24.549Z,1.00
2023-01-18T10:07:02.947Z,1.00
2023-01-18T10:09:38.883Z,1.00
2023-01-18T10:12:31.780Z,1.02
2023-01-18T10:15:04.677Z,1.05
2023-01-18T10:17:35.832Z,1.00
2023-01-18T10:20:14.665Z,1.02
2023-01-18T10:23:09.408Z,1.01
2023-01-18T10:25:52.484Z,1.05
2023-01-18T10:28:27.764Z,1.07
2023-01-18T10:31:03.745Z,1.04
2023-01-18T10:33:36.481Z,1.09
2023-01-18T10:36:11.827Z,1.10
2023-01-18T10:38:40.858Z,1.07
2023-01-18T10:41:18.999Z,1.08
2023-01-18T10:43:45.841Z,1.06
2023-01-18T10:46:17.261Z,1.11
2023-01-18T10:48:49.490Z,1.11
2023-01-18T10:51:37.596Z,1.15
2023-01-18T10:54:23.382Z,1.12
2023-01-18T10:57:01.912Z,1.15
2023-01-18T10:59:35.832Z,1.11
2023-01-18T11:02:03.071Z,1.11
2023-01-18T11:04:31.647Z,1.08
2023-01-18T11:07:02.294Z,1.06
2023-01-18T11:09:40.923Z,1.08
2023-01-18T11:12:43.507Z,1.14
2023-01-18T11:15:15.730Z,1.14
2023-01-18T11:18:00.395Z,1.18
2023-01-18T11:20:46.289Z,1.15
2023-01-18T11:23:25.578Z,1.10
2023-01-18T11:26:05.884Z,1.09
2023-01-18T11:28:59.096Z,1.10
2023-01-18T11:31:29.285Z,1.12
2023-01-18T11:33:58.281Z,1.16
2023-01-18T11:36:35.588Z,1.14
2023-01-18T11:39:29.984Z,1.10
2023-01-18T11:42:20.245Z,1.15
2023-01-18T11:45:09.978Z,1.10
2023-01-18T11:47:45.500Z,1.13
2023-01-18T11:50:28.382Z,1.03
2023-01-18T11:53:15.110Z,1.02
2023-01-18T11:55:47.620Z,1.08
2023-01-18T11:58:28.623Z,1.07
2023-01-18T12:01:34.117Z,1.00
2023-01-18T12:04:14.388Z,1.03
2023-01-18T12:07:05.340Z,0.99
2023-01-18T12:09:34.777Z,0.96
2023-01-18T12:12:18.594Z,0.93
2023-01-18T12:15:05.388Z,1.01
2023-01-18T12:17:45.813Z,1.04
2023-01-18T12:20:38.529Z,1.04
2023-01-18T12:23:22.578Z,1.04
2023-01-18T12:26:11.666Z,1.06
2023-01-18T12:28:57.547Z,1.08
2023-01-18T12:31:56.917Z,1.06
2023-01-18T12:34:30.495Z,1.05
2023-01-18T12:37:22.750Z,1.01
2023-01-18T12:40:01.365Z,1.04
2023-01-18T12:42:37.520Z,1.09
2023-01-18T12:45:17.701Z,1.12
2023-01-18T12:48:05.257Z,1.13
2023-01-18T12:50:34.396Z,1.17
2023-01-18T12:53:05.417Z,1.21
2023-01-18T12:55:33.496Z,1.20
2023-01-18T12:58:00.962Z,1.22
2023-01-18T13:00:36.852Z,1.22
2023-01-18T13:03:15.055Z,1.25
2023-01-18T13:05:58.093Z,1.25
2023-01-18T13:08:30.617Z,1.20
2023-01-18T13:11:06.978Z,1.19
2023-01-18T13:13:40.982Z,1.16
2023-01-18T13:16:29.332Z,1.13
2023-01-18T13:19:00.523Z,1.10
2023-01-18T13:22:01.074Z,1.15
2023-01-18T13:24:39.839Z,1.14
2023-01-18T13:27:11.946Z,1.16
2023-01-18T13:29:39.364Z,1.15
2023-01-18T13:32:24.551Z,1.15
2023-01-18T13:35:17.962Z,1.18
2023-01-18T13:37:56.345Z,1.35
2023-01-18T13:40:24.928Z,1.26
2023-01-18T13:42:51.666Z,1.22
2023-01-18T13:45:21.886Z,1.27
2023-01-18T13:48:00.942Z,1.14
2023-01-18T13:50:38.312Z,1.04
2023-01-18T13:53:13.974Z,1.08
2023-01-18T13:55:42.003Z,1.01
2023-01-18T13:58:38.655Z,0.94
2023-01-18T14:01:07.151Z,0.80
2023-01-18T14:03:36.603Z,0.78
2023-01-18T14:06:10.177Z,0.73
2023-01-18T14:08:39.880Z,0.67
2023-01-18T14:11:09.718Z,0.87
2023-01-18T14:13:45.391Z,0.70
2023-01-18T14:16:26.123Z,0.77
2023-01-18T14:19:03.120Z,0.70
2023-01-18T14:22:07.706Z,0.57
2023-01-18T14:24:50.054Z,0.53
2023-01-18T14:27:20.584Z,0.58
2023-01-18T14:29:48.465Z,0.50
2023-01-18T14:32:23.235Z,0.48
2023-01-18T14:35:25.990Z,0.24
2023-01-18T14:37:54.088Z,0.21
2023-01-18T14:40:28.258Z,0.37
2023-01-18T14:43:10.279Z,0.25
2023-01-18T14:45:39.082Z,0.23
2023-01-18T14:48:10.887Z,0.09
2023-01-18T14:50:42.129Z,0.15
2023-01-18T14:53:20.151Z,0.21
2023-01-18T14:56:06.591Z,0.20
2023-01-18T14:58:36.632Z,0.11
2023-01-18T15:01:04.033Z,0.12
2023-01-18T15:03:32.048Z,0.16
2023-01-18T15:06:08.453Z,0.11
2023-01-18T15:08:35.712Z,0.09
2023-01-18T15:11:05.041Z,0.02
2023-01-18T15:13:33.007Z,0.02
2023-01-18T15:16:02.829Z,0.02
2023-01-18T15:18:29.875Z,0.01
2023-01-18T15:20:59.298Z,0.01
2023-01-18T15:23:27.223Z,0.11
2023-01-18T15:25:54.479Z,0.14
2023-01-18T15:28:23.990Z,0.17
2023-01-18T15:30:53.189Z,0.13
2023-01-18T15:33:22.377Z,0.12
2023-01-18T15:35:53.128Z,0.11
2023-01-18T15:38:22.766Z,0.05
2023-01-18T15:40:57.191Z,0.09
2023-01-18T15:43:28.303Z,0.07
2023-01-18T15:45:56.047Z,0.16
2023-01-18T15:48:23.496Z,0.11
2023-01-18T15:50:52.641Z,0.09
2023-01-18T15:53:29.189Z,0.12
2023-01-18T15:56:03.856Z,0.04
2023-01-18T15:58:34.834Z,0.03
2023-01-18T16:01:10.769Z,0.05
2023-01-18T16:03:41.479Z,0.03
2023-01-18T16:06:11.447Z,-0.03
2023-01-18T16:09:10.625Z,0.01
2023-01-18T16:11:41.569Z,0.02
2023-01-18T16:14:30.906Z,0.01
2023-01-18T16:17:15.475Z,0.06
2023-01-18T16:19:55.571Z,0.01
2023-01-18T16:22:28.835Z,0.01
2023-01-18T16:25:08.950Z,-0.02
2023-01-18T16:27:55.926Z,-0.04
2023-01-18T16:30:26.009Z,-0.06
2023-01-18T16:32:52.835Z,-0.02
2023-01-18T16:35:21.402Z,-0.01
2023-01-18T16:37:48.291Z,0.01
2023-01-18T16:40:17.087Z,-0.05
2023-01-18T16:43:20.357Z,-0.01
2023-01-18T16:45:49.709Z,-0.01
2023-01-18T16:48:20.245Z,0.01
2023-01-18T16:50:47.466Z,0.03
2023-01-18T16:53:14.194Z,0.02
2023-01-18T16:55:43.947Z,-0.01
2023-01-18T16:58:14.097Z,0.08
2023-01-18T17:01:00.146Z,0.05
2023-01-18T17:03:27.781Z,0.03
2023-01-18T17:05:55.282Z,0.03
2023-01-18T17:08:21.784Z,0.01
2023-01-18T17:10:50.162Z,0.03
2023-01-18T17:13:17.177Z,0.06
2023-01-18T17:15:45.457Z,0.06
2023-01-18T17:18:16.951Z,0.06
2023-01-18T17:20:44.087Z,0.05
2023-01-18T17:23:10.855Z,0.02
2023-01-18T17:25:37.903Z,-0.07
2023-01-18T17:28:04.811Z,-0.01
2023-01-18T17:30:32.708Z,-0.01
2023-01-18T17:32:59.772Z,-0.01
2023-01-18T17:35:28.506Z,0.03
2023-01-18T17:38:01.029Z,-0.02
2023-01-18T17:40:41.920Z,-0.05
2023-01-18T17:43:15.210Z,-0.07
2023-01-18T17:45:48.416Z,-0.06
2023-01-18T17:48:20.161Z,0.05
2023-01-18T17:50:46.944Z,0.03
2023-01-18T17:53:13.503Z,0.01
2023-01-18T17:55:40.533Z,-0.02
2023-01-18T17:58:07.254Z,-0.05
2023-01-18T18:00:33.803Z,0.01
2023-01-18T18:03:02.163Z,-0.02
2023-01-18T18:05:28.957Z,-0.02
2023-01-18T18:07:55.451Z,0.00
2023-01-18T18:10:21.981Z,0.08
2023-01-18T18:12:48.692Z,0.06
2023-01-18T18:15:15.360Z,0.05
2023-01-18T18:17:41.970Z,0.10
2023-01-18T18:20:10.858Z,0.11
2023-01-18T18:22:37.897Z,0.14
2023-01-18T18:25:06.589Z,0.14
2023-01-18T18:27:44.859Z,0.10
2023-01-18T18:30:13.007Z,0.10
2023-01-18T18:32:39.913Z,0.11
2023-01-18T18:35:23.273Z,0.04
2023-01-18T18:37:51.685Z,0.08
2023-01-18T18:40:19.290Z,0.10
2023-01-18T18:43:00.763Z,0.06
2023-01-18T18:45:30.202Z,0.05
2023-01-18T18:47:56.698Z,0.08
2023-01-18T18:50:23.208Z,0.01
2023-01-18T18:52:49.946Z,-0.02
2023-01-18T18:55:16.574Z,0.09
2023-01-18T18:57:43.108Z,0.08
2023-01-18T19:00:10.421Z,0.04
2023-01-18T19:02:37.151Z,0.03
2023-01-18T19:05:04.215Z,0.03
2023-01-18T19:07:31.049Z,0.03
2023-01-18T19:09:57.563Z,0.03
2023-01-18T19:12:24.155Z,0.02
2023-01-18T19:14:50.791Z,0.08
2023-01-18T19:17:28.987Z,0.06
2023-01-18T19:19:56.567Z,0.02
2023-01-18T19:22:23.205Z,0.09
2023-01-18T19:24:49.846Z,0.15
2023-01-18T19:27:16.721Z,0.12
2023-01-18T19:29:43.290Z,0.16
2023-01-18T19:32:10.090Z,0.13
2023-01-18T19:34:38.687Z,0.18
2023-01-18T19:37:05.473Z,0.19
2023-01-18T19:39:34.799Z,0.16
2023-01-18T19:42:01.945Z,0.16
2023-01-18T19:44:28.512Z,0.06
2023-01-18T19:46:57.987Z,0.10
2023-01-18T19:49:26.224Z,0.08
2023-01-18T19:51:54.692Z,0.12
2023-01-18T19:54:22.094Z,0.12
2023-01-18T19:56:49.143Z,0.16
2023-01-18T19:59:15.824Z,0.15
2023-01-18T20:01:42.640Z,0.21
2023-01-18T20:04:09.856Z,0.18
2023-01-18T20:06:39.787Z,0.14
2023-01-18T20:09:17.861Z,0.20
2023-01-18T20:11:45.202Z,0.23
2023-01-18T20:14:11.941Z,0.22
2023-01-18T20:16:38.580Z,0.26
2023-01-18T20:19:05.509Z,0.22
2023-01-18T20:21:32.103Z,0.28
2023-01-18T20:23:59.132Z,0.30
2023-01-18T20:26:35.824Z,0.32
2023-01-18T20:29:07.145Z,0.30
2023-01-18T20:31:36.038Z,0.28
2023-01-18T20:34:08.955Z,0.32
2023-01-18T20:36:36.923Z,0.35
2023-01-18T20:39:04.603Z,0.28
2023-01-18T20:41:31.368Z,0.33
2023-01-18T20:43:58.254Z,0.34
2023-01-18T20:46:24.821Z,0.31
2023-01-18T20:48:51.388Z,0.27
2023-01-18T20:51:18.322Z,0.36
2023-01-18T20:53:45.906Z,0.46
2023-01-18T20:56:27.915Z,0.46
2023-01-18T20:58:55.656Z,0.44
2023-01-18T21:01:22.426Z,0.51
2023-01-18T21:03:54.349Z,0.54
2023-01-18T21:06:21.526Z,0.53
2023-01-18T21:08:48.139Z,0.51
2023-01-18T21:11:16.873Z,0.52
2023-01-18T21:13:43.765Z,0.47
2023-01-18T21:16:10.424Z,0.52
2023-01-18T21:18:37.662Z,0.49
2023-01-18T21:21:04.766Z,0.53
2023-01-18T21:23:38.011Z,0.55
2023-01-18T21:26:05.585Z,0.60
2023-01-18T21:28:32.069Z,0.55
2023-01-18T21:30:58.564Z,0.57
2023-01-18T21:33:25.635Z,0.55
2023-01-18T21:35:55.372Z,0.46
2023-01-18T21:38:25.667Z,0.49
2023-01-18T21:40:52.249Z,0.50
2023-01-18T21:43:38.837Z,0.58
2023-01-18T21:46:07.665Z,0.69
2023-01-18T21:48:34.135Z,0.63
2023-01-18T21:51:21.082Z,0.73
2023-01-18T21:54:06.456Z,0.66
2023-01-18T21:56:33.085Z,0.69
2023-01-18T21:59:01.023Z,0.70
2023-01-18T22:01:37.767Z,0.76
2023-01-18T22:04:28.657Z,0.70
2023-01-18T22:06:59.085Z,0.65
2023-01-18T22:09:30.005Z,0.66
2023-01-18T22:11:57.301Z,0.71
2023-01-18T22:14:24.341Z,0.67
2023-01-18T22:16:50.842Z,0.68
2023-01-18T22:19:19.761Z,0.62
2023-01-18T22:21:46.639Z,0.65
2023-01-18T22:24:13.810Z,0.59
2023-01-18T22:26:41.239Z,0.61
2023-01-18T22:29:08.302Z,0.61
2023-01-18T22:31:35.002Z,0.69
2023-01-18T22:34:04.390Z,0.65
2023-01-18T22:36:31.754Z,0.65
2023-01-18T22:38:58.212Z,0.66
2023-01-18T22:41:27.057Z,0.68
2023-01-18T22:43:54.562Z,0.70
2023-01-18T22:46:22.165Z,0.68
2023-01-18T22:48:48.749Z,0.61
2023-01-18T22:51:17.105Z,0.69
2023-01-18T22:53:44.503Z,0.67
2023-01-18T22:56:24.591Z,0.69
2023-01-18T22:58:51.980Z,0.76
2023-01-18T23:01:25.800Z,0.66
2023-01-18T23:03:55.014Z,0.70
2023-01-18T23:06:21.627Z,0.76
2023-01-18T23:08:48.636Z,0.67
2023-01-18T23:11:17.931Z,0.78
2023-01-18T23:14:19.675Z,0.77
2023-01-18T23:17:04.632Z,0.77
2023-01-18T23:19:31.250Z,0.69
2023-01-18T23:21:58.033Z,0.63
2023-01-18T23:24:25.303Z,0.76
2023-01-18T23:26:52.507Z,0.80
2023-01-18T23:29:19.940Z,0.75
2023-01-18T23:31:46.771Z,0.74
2023-01-18T23:34:21.996Z,0.76
2023-01-18T23:36:48.571Z,0.71
2023-01-18T23:39:33.389Z,0.71
2023-01-18T23:42:18.809Z,0.64
2023-01-18T23:45:04.610Z,0.72
2023-01-18T23:47:49.367Z,0.70
2023-01-18T23:50:34.847Z,0.75
2023-01-18T23:53:20.424Z,0.82
2023-01-18T23:55:47.012Z,0.77
2023-01-18T23:58:13.520Z,0.75
